createdAt,value
2022-12-03T00:02:23.707Z,86.20
2022-12-03T00:04:51.344Z,86.10
2022-12-03T00:07:18.638Z,86.20
2022-12-03T00:09:45.581Z,86.10
2022-12-03T00:12:12.757Z,86.00
2022-12-03T00:14:44.473Z,85.90
2022-12-03T00:17:12.081Z,85.90
2022-12-03T00:19:41.396Z,85.80
2022-12-03T00:22:12.681Z,85.80
2022-12-03T00:24:40.036Z,85.80
2022-12-03T00:27:07.283Z,85.80
2022-12-03T00:29:34.636Z,85.70
2022-12-03T00:32:01.550Z,85.70
2022-12-03T00:34:28.790Z,85.60
2022-12-03T00:36:55.806Z,85.50
2022-12-03T00:39:22.935Z,85.50
2022-12-03T00:41:50.085Z,85.40
2022-12-03T00:44:17.183Z,85.30
2022-12-03T00:46:44.259Z,85.30
2022-12-03T00:49:11.432Z,85.30
2022-12-03T00:51:38.552Z,85.20
2022-12-03T00:54:08.357Z,85.20
2022-12-03T00:56:38.106Z,85.20
2022-12-03T00:59:05.220Z,85.20
2022-12-03T01:01:32.436Z,85.10
2022-12-03T01:04:00.946Z,85.20
2022-12-03T01:06:30.846Z,85.20
2022-12-03T01:08:57.898Z,85.20
2022-12-03T01:11:41.752Z,85.20
2022-12-03T01:14:11.259Z,85.10
2022-12-03T01:16:38.552Z,85.60
2022-12-03T01:19:06.214Z,85.00
2022-12-03T01:21:36.568Z,85.00
2022-12-03T01:24:04.161Z,85.10
2022-12-03T01:26:31.230Z,85.00
2022-12-03T01:28:58.354Z,85.00
2022-12-03T01:31:44.198Z,85.00
2022-12-03T01:34:11.576Z,85.00
2022-12-03T01:36:38.573Z,85.00
2022-12-03T01:39:05.722Z,85.00
2022-12-03T01:41:33.166Z,84.90
2022-12-03T01:44:00.479Z,84.90
2022-12-03T01:46:37.907Z,84.90
2022-12-03T01:49:05.168Z,85.00
2022-12-03T01:51:34.211Z,85.00
2022-12-03T01:54:04.369Z,85.00
2022-12-03T01:56:31.639Z,85.10
2022-12-03T01:58:58.688Z,85.10
2022-12-03T02:01:27.011Z,85.10
2022-12-03T02:03:57.093Z,85.10
2022-12-03T02:06:24.388Z,85.10
2022-12-03T02:08:51.583Z,85.10
2022-12-03T02:11:25.392Z,85.10
2022-12-03T02:13:57.104Z,85.20
2022-12-03T02:16:24.218Z,85.20
2022-12-03T02:18:51.421Z,85.10
2022-12-03T02:21:32.815Z,85.00
2022-12-03T02:24:05.572Z,85.00
2022-12-03T02:26:32.609Z,85.00
2022-12-03T02:29:00.174Z,85.00
2022-12-03T02:31:27.308Z,85.00
2022-12-03T02:33:54.371Z,85.00
2022-12-03T02:36:23.573Z,85.00
2022-12-03T02:38:50.760Z,84.90
2022-12-03T02:41:37.653Z,84.90
2022-12-03T02:44:10.259Z,84.80
2022-12-03T02:46:37.370Z,84.80
2022-12-03T02:49:04.673Z,84.80
2022-12-03T02:51:32.262Z,84.70
2022-12-03T02:53:59.450Z,84.60
2022-12-03T02:56:30.408Z,84.60
2022-12-03T02:58:58.788Z,84.50
2022-12-03T03:01:26.224Z,84.50
2022-12-03T03:03:53.402Z,84.40
2022-12-03T03:06:20.601Z,84.30
2022-12-03T03:08:47.786Z,84.40
2022-12-03T03:11:14.847Z,84.30
2022-12-03T03:13:42.194Z,84.20
2022-12-03T03:16:10.496Z,84.20
2022-12-03T03:18:37.803Z,84.10
2022-12-03T03:21:04.972Z,84.00
2022-12-03T03:23:32.196Z,84.00
2022-12-03T03:26:11.815Z,83.90
2022-12-03T03:28:41.055Z,83.80
2022-12-03T03:31:11.040Z,83.70
2022-12-03T03:33:41.699Z,83.70
2022-12-03T03:36:09.481Z,83.60
2022-12-03T03:38:36.878Z,83.50
2022-12-03T03:41:04.334Z,83.50
2022-12-03T03:43:33.340Z,83.90
2022-12-03T03:46:00.398Z,83.30
2022-12-03T03:48:27.438Z,83.30
2022-12-03T03:50:54.486Z,83.20
2022-12-03T03:53:22.763Z,83.20
2022-12-03T03:55:50.000Z,83.20
2022-12-03T03:58:17.312Z,83.20
2022-12-03T04:00:44.910Z,83.10
2022-12-03T04:03:12.205Z,83.10
2022-12-03T04:05:39.516Z,83.10
2022-12-03T04:08:06.560Z,83.10
2022-12-03T04:10:55.014Z,83.00
2022-12-03T04:13:24.423Z,83.00
2022-12-03T04:15:51.585Z,82.90
2022-12-03T04:18:36.808Z,82.90
2022-12-03T04:21:22.638Z,82.90
2022-12-03T04:23:49.682Z,82.80
2022-12-03T04:26:36.625Z,82.70
2022-12-03T04:29:03.690Z,82.70
2022-12-03T04:31:49.640Z,82.70
2022-12-03T04:34:36.133Z,82.70
2022-12-03T04:37:03.281Z,82.70
2022-12-03T04:39:30.436Z,82.70
2022-12-03T04:41:57.474Z,82.80
2022-12-03T04:44:33.364Z,82.70
2022-12-03T04:47:09.932Z,82.70
2022-12-03T04:49:39.013Z,82.60
2022-12-03T04:52:06.255Z,82.70
2022-12-03T04:54:33.328Z,82.70
2022-12-03T04:57:01.975Z,82.70
2022-12-03T04:59:29.093Z,82.70
2022-12-03T05:01:56.216Z,82.70
2022-12-03T05:04:24.792Z,82.70
2022-12-03T05:06:52.009Z,82.60
2022-12-03T05:09:19.028Z,82.60
2022-12-03T05:11:46.022Z,82.70
2022-12-03T05:14:24.432Z,82.70
2022-12-03T05:16:51.634Z,82.70
2022-12-03T05:19:18.830Z,82.70
2022-12-03T05:21:45.984Z,82.70
2022-12-03T05:24:12.945Z,82.80
2022-12-03T05:26:40.108Z,82.80
2022-12-03T05:29:07.111Z,82.80
2022-12-03T05:31:34.261Z,82.80
2022-12-03T05:34:01.344Z,82.80
2022-12-03T05:36:28.496Z,82.90
2022-12-03T05:38:55.708Z,82.80
2022-12-03T05:41:41.510Z,82.90
2022-12-03T05:44:08.644Z,82.90
2022-12-03T05:46:35.696Z,82.90
2022-12-03T05:49:02.847Z,83.00
2022-12-03T05:51:32.460Z,83.10
2022-12-03T05:54:02.053Z,83.20
2022-12-03T05:56:29.139Z,83.20
2022-12-03T05:58:56.174Z,83.30
2022-12-03T06:01:23.399Z,83.30
2022-12-03T06:03:50.513Z,83.20
2022-12-03T06:06:18.131Z,83.20
2022-12-03T06:08:45.316Z,83.10
2022-12-03T06:11:13.485Z,83.10
2022-12-03T06:13:40.482Z,83.10
2022-12-03T06:16:07.806Z,83.20
2022-12-03T06:18:34.905Z,83.10
2022-12-03T06:21:02.061Z,83.10
2022-12-03T06:23:29.287Z,83.10
2022-12-03T06:25:56.273Z,83.10
2022-12-03T06:28:25.699Z,83.00
2022-12-03T06:30:52.755Z,83.00
2022-12-03T06:33:19.866Z,83.00
2022-12-03T06:35:46.901Z,83.10
2022-12-03T06:38:13.928Z,83.10
2022-12-03T06:40:41.070Z,83.10
2022-12-03T06:43:08.129Z,83.00
2022-12-03T06:45:35.280Z,83.00
2022-12-03T06:48:02.314Z,83.00
2022-12-03T06:50:32.060Z,83.00
2022-12-03T06:52:59.319Z,83.00
2022-12-03T06:55:26.427Z,83.00
2022-12-03T06:57:53.392Z,83.00
2022-12-03T07:00:20.865Z,83.00
2022-12-03T07:02:50.911Z,83.00
2022-12-03T07:05:18.094Z,82.90
2022-12-03T07:07:45.407Z,82.90
2022-12-03T07:10:12.697Z,83.00
2022-12-03T07:12:39.750Z,83.00
2022-12-03T07:15:09.553Z,83.10
2022-12-03T07:17:36.574Z,83.10
2022-12-03T07:20:06.624Z,83.10
2022-12-03T07:22:33.867Z,83.10
2022-12-03T07:25:01.021Z,83.10
2022-12-03T07:27:30.562Z,83.10
2022-12-03T07:29:57.740Z,83.10
2022-12-03T07:32:24.938Z,83.10
2022-12-03T07:34:54.443Z,83.10
2022-12-03T07:37:25.830Z,83.10
2022-12-03T07:39:55.450Z,83.20
2022-12-03T07:42:22.603Z,83.20
2022-12-03T07:44:49.711Z,83.10
2022-12-03T07:47:19.356Z,83.10
2022-12-03T07:49:46.559Z,83.20
2022-12-03T07:52:15.884Z,83.20
2022-12-03T07:54:47.937Z,83.20
2022-12-03T07:57:14.932Z,83.30
2022-12-03T07:59:44.632Z,83.20
2022-12-03T08:02:20.775Z,83.30
2022-12-03T08:04:48.613Z,83.30
2022-12-03T08:07:15.764Z,83.40
2022-12-03T08:09:42.727Z,83.50
2022-12-03T08:12:25.305Z,83.60
2022-12-03T08:14:52.759Z,83.60
2022-12-03T08:17:28.263Z,83.60
2022-12-03T08:19:55.473Z,83.60
2022-12-03T08:22:22.766Z,83.60
2022-12-03T08:24:50.195Z,83.60
2022-12-03T08:27:19.805Z,83.60
2022-12-03T08:29:46.941Z,83.60
2022-12-03T08:32:18.839Z,83.70
2022-12-03T08:34:46.056Z,83.70
2022-12-03T08:37:18.120Z,83.70
2022-12-03T08:39:46.992Z,83.70
2022-12-03T08:42:42.769Z,83.80
2022-12-03T08:45:45.620Z,83.80
2022-12-03T08:48:19.099Z,83.80
2022-12-03T08:50:52.391Z,83.90
2022-12-03T08:53:33.016Z,83.90
2022-12-03T08:56:06.666Z,83.90
2022-12-03T08:58:44.105Z,83.90
2022-12-03T09:01:11.250Z,84.00
2022-12-03T09:03:52.462Z,84.00
2022-12-03T09:06:19.637Z,84.00
2022-12-03T09:08:48.858Z,84.10
2022-12-03T09:11:48.183Z,84.10
2022-12-03T09:14:36.813Z,84.10
2022-12-03T09:20:24.158Z,84.10
2022-12-03T09:22:53.642Z,84.10
2022-12-03T09:25:29.383Z,84.10
2022-12-03T09:30:42.926Z,84.10
2022-12-03T09:34:08.132Z,84.20
2022-12-03T09:37:03.266Z,84.20
2022-12-03T09:42:22.137Z,84.10
2022-12-03T09:44:49.476Z,84.20
2022-12-03T09:47:28.296Z,84.20
2022-12-03T09:49:55.711Z,84.20
2022-12-03T09:52:28.758Z,84.30
2022-12-03T09:54:56.040Z,84.30
2022-12-03T09:57:23.205Z,84.30
2022-12-03T09:59:50.184Z,84.30
2022-12-03T10:02:26.966Z,84.30
2022-12-03T10:04:54.650Z,84.30
2022-12-03T10:07:22.432Z,84.30
2022-12-03T10:09:50.563Z,84.40
2022-12-03T10:12:21.627Z,84.40
2022-12-03T10:14:48.561Z,84.50
2022-12-03T10:17:15.589Z,84.60
2022-12-03T10:19:43.379Z,84.60
2022-12-03T10:22:13.497Z,84.60
2022-12-03T10:24:40.567Z,84.60
2022-12-03T10:27:30.574Z,84.50
2022-12-03T10:29:58.951Z,84.40
2022-12-03T10:32:46.928Z,84.40
2022-12-03T10:35:21.248Z,84.40
2022-12-03T10:38:18.616Z,84.40
2022-12-03T10:40:48.051Z,84.40
2022-12-03T10:43:18.926Z,84.40
2022-12-03T10:45:47.253Z,84.40
2022-12-03T10:48:21.894Z,84.40
2022-12-03T10:50:52.886Z,84.30
2022-12-03T10:53:21.220Z,84.30
2022-12-03T10:55:48.958Z,84.30
2022-12-03T10:58:26.105Z,84.30
2022-12-03T11:00:57.424Z,84.30
2022-12-03T11:03:26.219Z,84.40
2022-12-03T11:05:53.920Z,84.40
2022-12-03T11:08:22.806Z,84.40
2022-12-03T11:10:59.783Z,84.40
2022-12-03T11:13:27.399Z,84.30
2022-12-03T11:15:54.561Z,84.20
2022-12-03T11:18:36.979Z,84.30
2022-12-03T11:21:09.121Z,84.30
2022-12-03T11:23:45.498Z,84.20
2022-12-03T11:26:18.809Z,84.20
2022-12-03T11:28:46.481Z,84.10
2022-12-03T11:31:42.659Z,84.10
2022-12-03T11:34:19.096Z,84.10
2022-12-03T11:37:10.950Z,84.00
2022-12-03T11:39:50.677Z,84.00
2022-12-03T11:42:25.607Z,83.90
2022-12-03T11:45:05.472Z,84.00
2022-12-03T11:47:37.732Z,84.00
2022-12-03T11:50:28.611Z,84.00
2022-12-03T11:53:01.678Z,84.00
2022-12-03T11:55:34.893Z,84.00
2022-12-03T11:58:03.614Z,83.90
2022-12-03T12:00:30.636Z,83.80
2022-12-03T12:02:58.405Z,83.80
2022-12-03T12:05:30.569Z,83.70
2022-12-03T12:07:58.223Z,83.70
2022-12-03T12:10:46.998Z,83.90
2022-12-03T12:13:50.752Z,84.00
2022-12-03T12:16:51.936Z,84.00
2022-12-03T12:19:32.610Z,84.10
2022-12-03T12:22:28.137Z,84.10
2022-12-03T12:25:01.936Z,84.10
2022-12-03T12:27:46.048Z,84.10
2022-12-03T12:30:14.261Z,84.10
2022-12-03T12:32:49.088Z,84.10
2022-12-03T12:35:21.247Z,84.10
2022-12-03T12:37:55.036Z,84.10
2022-12-03T12:40:28.039Z,84.10
2022-12-03T12:42:58.190Z,84.10
2022-12-03T12:45:29.407Z,84.00
2022-12-03T12:53:34.380Z,83.90
2022-12-03T12:57:02.449Z,83.90
2022-12-03T12:59:29.512Z,83.70
2022-12-03T13:02:08.508Z,83.70
2022-12-03T13:04:40.179Z,83.60
2022-12-03T13:07:11.957Z,83.60
2022-12-03T13:09:48.032Z,83.50
2022-12-03T13:12:21.319Z,83.50
2022-12-03T13:14:52.253Z,83.40
2022-12-03T13:17:23.299Z,83.30
2022-12-03T13:19:58.237Z,83.30
2022-12-03T13:22:33.745Z,83.20
2022-12-03T13:25:00.883Z,83.20
2022-12-03T13:27:39.202Z,83.20
2022-12-03T13:30:14.363Z,83.00
2022-12-03T13:32:41.660Z,83.00
2022-12-03T13:35:35.466Z,82.90
2022-12-03T13:38:12.928Z,82.80
2022-12-03T13:40:40.245Z,82.70
2022-12-03T13:43:31.429Z,82.70
2022-12-03T13:45:59.783Z,82.60
2022-12-03T13:48:31.984Z,82.60
2022-12-03T13:51:01.990Z,82.50
2022-12-03T13:53:47.001Z,82.50
2022-12-03T13:56:36.509Z,82.40
2022-12-03T13:59:04.534Z,82.20
2022-12-03T14:01:54.698Z,82.10
2022-12-03T14:04:35.186Z,82.10
2022-12-03T14:10:12.385Z,82.10
2022-12-03T14:12:42.612Z,82.10
2022-12-03T14:15:16.722Z,82.00
2022-12-03T14:21:10.190Z,81.90
2022-12-03T14:23:40.389Z,81.80
2022-12-03T14:26:09.688Z,81.80
2022-12-03T14:28:39.087Z,81.80
2022-12-03T14:31:15.445Z,81.80
2022-12-03T14:33:45.411Z,81.70
2022-12-03T14:36:17.046Z,81.60
2022-12-03T14:38:46.792Z,81.70
2022-12-03T14:41:32.473Z,81.50
2022-12-03T14:43:59.520Z,81.50
2022-12-03T14:46:29.669Z,81.50
2022-12-03T14:53:44.194Z,81.40
2022-12-03T14:56:11.176Z,81.30
2022-12-03T14:58:38.573Z,81.30
2022-12-03T15:01:17.141Z,81.30
2022-12-03T15:03:44.154Z,81.40
2022-12-03T15:06:16.713Z,81.40
2022-12-03T15:08:43.945Z,81.40
2022-12-03T15:15:10.836Z,81.30
2022-12-03T15:17:40.690Z,81.30
2022-12-03T15:20:09.567Z,81.30
2022-12-03T15:22:36.641Z,81.30
2022-12-03T15:25:06.101Z,81.30
2022-12-03T15:27:34.721Z,81.30
2022-12-03T15:30:11.015Z,81.70
2022-12-03T15:32:41.013Z,81.20
2022-12-03T15:35:15.983Z,81.30
2022-12-03T15:38:02.676Z,81.20
2022-12-03T15:43:59.284Z,81.20
2022-12-03T15:46:28.205Z,81.20
2022-12-03T15:48:55.859Z,81.20
2022-12-03T15:51:22.956Z,81.20
2022-12-03T15:53:50.268Z,81.20
2022-12-03T15:56:17.396Z,81.20
2022-12-03T15:58:44.546Z,81.20
2022-12-03T16:01:49.360Z,81.30
2022-12-03T16:04:16.470Z,81.30
2022-12-03T16:06:44.986Z,81.30
2022-12-03T16:09:12.140Z,81.30
2022-12-03T16:14:35.321Z,81.30
2022-12-03T16:17:02.423Z,81.30
2022-12-03T16:19:29.624Z,81.30
2022-12-03T16:22:14.234Z,81.40
2022-12-03T16:24:41.222Z,81.40
2022-12-03T16:29:52.013Z,81.40
2022-12-03T16:32:21.005Z,81.40
2022-12-03T16:35:02.144Z,81.40
2022-12-03T16:37:34.309Z,81.40
2022-12-03T16:40:01.538Z,81.40
2022-12-03T16:42:33.813Z,81.50
2022-12-03T16:45:03.797Z,81.50
2022-12-03T16:47:34.057Z,81.50
2022-12-03T16:50:07.941Z,81.50
2022-12-03T16:52:41.147Z,81.50
2022-12-03T16:55:13.575Z,81.50
2022-12-03T16:57:42.896Z,81.60
2022-12-03T17:00:12.487Z,81.60
2022-12-03T17:02:39.772Z,81.60
2022-12-03T17:05:06.980Z,81.60
2022-12-03T17:07:36.164Z,81.60
2022-12-03T17:10:05.680Z,81.60
2022-12-03T17:12:54.170Z,81.70
2022-12-03T17:15:19.885Z,81.70
2022-12-03T17:17:47.105Z,81.70
2022-12-03T17:20:14.857Z,81.70
2022-12-03T17:22:44.452Z,81.60
2022-12-03T17:25:22.091Z,81.60
2022-12-03T17:27:51.577Z,81.60
2022-12-03T17:30:21.296Z,81.70
2022-12-03T17:33:01.303Z,81.60
2022-12-03T17:35:28.759Z,81.60
2022-12-03T17:37:56.011Z,81.60
2022-12-03T17:40:23.248Z,81.60
2022-12-03T17:42:57.613Z,81.60
2022-12-03T17:46:13.853Z,81.60
2022-12-03T17:48:44.246Z,81.60
2022-12-03T17:51:24.598Z,81.70
2022-12-03T17:57:28.299Z,81.60
2022-12-03T17:59:58.041Z,81.60
2022-12-03T18:02:25.193Z,81.60
2022-12-03T18:04:53.390Z,81.60
2022-12-03T18:07:20.625Z,81.50
2022-12-03T18:10:07.015Z,81.50
2022-12-03T18:12:42.321Z,81.50
2022-12-03T18:15:20.335Z,81.60
2022-12-03T18:20:33.069Z,81.70
2022-12-03T18:23:08.522Z,81.70
2022-12-03T18:25:50.737Z,81.70
2022-12-03T18:31:48.783Z,81.60
2022-12-03T18:34:29.615Z,81.60
2022-12-03T18:36:58.576Z,81.60
2022-12-03T18:40:12.121Z,81.60
2022-12-03T18:42:39.884Z,81.60
2022-12-03T18:46:04.180Z,81.70
2022-12-03T18:48:18.410Z,81.80
2022-12-03T18:50:50.106Z,81.80
2022-12-03T18:53:19.741Z,81.80
2022-12-03T18:55:49.670Z,81.80
2022-12-03T18:58:16.856Z,81.80
2022-12-03T19:00:43.932Z,81.80
2022-12-03T19:03:10.909Z,81.90
2022-12-03T19:05:40.524Z,81.90
2022-12-03T19:08:19.264Z,81.90
2022-12-03T19:10:54.329Z,82.00
2022-12-03T19:13:22.601Z,82.00
2022-12-03T19:15:51.889Z,82.00
2022-12-03T19:18:22.299Z,82.10
2022-12-03T19:20:49.392Z,82.20
2022-12-03T19:23:16.985Z,82.20
2022-12-03T19:25:56.330Z,82.20
2022-12-03T19:28:23.414Z,82.20
2022-12-03T19:31:17.413Z,82.20
2022-12-03T19:33:46.783Z,82.10
2022-12-03T19:36:24.609Z,82.10
2022-12-03T19:38:56.721Z,82.10
2022-12-03T19:41:48.027Z,82.10
2022-12-03T19:44:27.966Z,82.10
2022-12-03T19:47:36.009Z,81.90
2022-12-03T19:50:35.970Z,81.90
2022-12-03T20:01:14.377Z,81.60
2022-12-03T20:03:59.277Z,81.50
2022-12-03T20:06:43.635Z,81.60
2022-12-03T20:12:30.614Z,81.60
2022-12-03T20:14:57.779Z,81.50
2022-12-03T20:17:26.429Z,81.40
2022-12-03T20:19:53.913Z,81.30
2022-12-03T20:22:27.379Z,81.20
2022-12-03T20:25:44.338Z,81.20
2022-12-03T20:28:11.473Z,81.20
2022-12-03T20:31:14.720Z,81.20
2022-12-03T20:33:46.516Z,81.10
2022-12-03T20:36:34.673Z,81.20
2022-12-03T20:40:03.600Z,81.20
2022-12-03T20:42:52.397Z,81.20
2022-12-03T20:45:28.473Z,81.30
2022-12-03T20:47:55.646Z,81.40
2022-12-03T20:50:26.009Z,81.40
2022-12-03T20:53:22.491Z,81.50
2022-12-03T20:55:42.627Z,81.60
2022-12-03T20:58:09.644Z,81.60
2022-12-03T21:00:36.738Z,81.70
2022-12-03T21:03:04.017Z,81.70
2022-12-03T21:05:33.235Z,81.70
2022-12-03T21:08:05.294Z,81.80
2022-12-03T21:11:17.245Z,81.80
2022-12-03T21:18:20.522Z,82.00
2022-12-03T21:20:49.025Z,81.90
2022-12-03T21:23:27.674Z,81.80
2022-12-03T21:25:55.160Z,81.70
2022-12-03T21:28:22.150Z,81.80
2022-12-03T21:30:49.174Z,81.80
2022-12-03T21:33:26.664Z,81.80
2022-12-03T21:36:05.963Z,81.90
2022-12-03T21:38:33.814Z,81.90
2022-12-03T21:41:00.884Z,82.00
2022-12-03T21:43:29.278Z,82.00
2022-12-03T21:46:02.363Z,82.10
2022-12-03T21:48:37.093Z,82.10
2022-12-03T21:51:10.426Z,82.10
2022-12-03T21:53:43.446Z,82.20
2022-12-03T21:56:18.135Z,82.20
2022-12-03T21:59:47.408Z,82.20
2022-12-03T22:02:14.732Z,82.20
2022-12-03T22:04:54.056Z,82.20
2022-12-03T22:07:21.039Z,82.20
2022-12-03T22:09:53.869Z,82.20
2022-12-03T22:12:21.095Z,82.30
2022-12-03T22:14:48.126Z,82.30
2022-12-03T22:17:28.035Z,82.30
2022-12-03T22:20:05.078Z,82.30
2022-12-03T22:22:37.543Z,82.30
2022-12-03T22:25:04.800Z,82.20
2022-12-03T22:27:31.820Z,82.10
2022-12-03T22:29:58.883Z,82.10
2022-12-03T22:32:28.182Z,82.10
2022-12-03T22:34:55.427Z,82.10
2022-12-03T22:37:25.228Z,82.10
2022-12-03T22:39:54.674Z,82.10
2022-12-03T22:42:21.904Z,82.10
2022-12-03T22:44:49.019Z,82.10
2022-12-03T22:47:16.262Z,82.10
2022-12-03T22:49:46.026Z,82.50
2022-12-03T22:52:13.192Z,81.90
2022-12-03T22:54:40.302Z,81.90
2022-12-03T22:57:07.600Z,81.80
2022-12-03T22:59:37.261Z,81.70
2022-12-03T23:02:08.426Z,81.70
2022-12-03T23:04:35.624Z,81.70
2022-12-03T23:07:02.633Z,81.60
2022-12-03T23:09:32.275Z,81.50
2022-12-03T23:11:59.269Z,81.50
2022-12-03T23:14:29.170Z,81.50
2022-12-03T23:16:56.188Z,81.40
2022-12-03T23:19:25.332Z,81.40
2022-12-03T23:21:52.602Z,81.50
2022-12-03T23:24:20.813Z,81.40
2022-12-03T23:26:47.869Z,81.40
2022-12-03T23:29:15.046Z,81.40
2022-12-03T23:31:42.120Z,81.30
2022-12-03T23:34:09.954Z,81.30
2022-12-03T23:36:39.492Z,81.20
2022-12-03T23:39:08.951Z,81.10
2022-12-03T23:41:36.297Z,81.10
2022-12-03T23:44:03.229Z,81.10
2022-12-03T23:46:30.459Z,81.10
2022-12-03T23:48:58.730Z,81.00
2022-12-03T23:51:25.890Z,81.00
2022-12-03T23:53:53.328Z,81.00
2022-12-03T23:56:24.909Z,81.00
2022-12-03T23:58:52.208Z,81.00
